Latest Weather Observations for Red Rocks Point

IDW60801

Issued at 6:33 am WST Tuesday 24 January 2017 (issued every 30 minutes, with the page automatically refreshed every 10 minutes)

About weather observations | Map of weather stations | Latest weather observations for WA | Other Formats
Station Details ID: 011053 Name: RED ROCKS POINT Lat: -32.20 Lon: 127.53 Height: 3.1 m
Data from the previous 72 hours. | See also: Recent months at Red Rocks Point
Date/Time
WST
Temp
°C
App
Temp
°C
Dew
Point
°C
Rel
Hum
%
Delta-T
°C
Wind Press
QNH
hPa
Press
MSL
hPa
Rain since
9am
mm
Dir  Spd
km/h
Gust
km/h
Spd
kts
Gust
kts
24/06:30am 18.9 15.2 11.5 62 4.0 SE 22 26 12 14 1020.6 1020.6 0.0
24/06:00am 18.8 14.6 12.3 66 3.6 SE 26 30 14 16 1020.2 1020.2 0.0
24/05:30am 18.8 15.1 12.8 68 3.4 SSE 24 28 13 15 1019.7 1019.7 0.0
24/05:00am 18.1 14.7 11.2 64 3.7 S 20 28 11 15 1019.6 1019.6 0.0
24/04:30am 18.3 14.9 11.4 64 3.8 SSE 20 28 11 15 1019.2 1019.2 0.0
24/04:00am 18.2 14.2 10.3 60 4.2 SSE 22 32 12 17 1019.0 1019.0 0.0
24/03:30am 18.3 13.7 10.9 62 4.0 SSE 26 30 14 16 1018.8 1018.8 0.0
24/03:00am 18.6 14.7 10.7 60 4.2 SSE 22 30 12 16 1018.7 1018.7 0.0
24/02:30am 18.3 14.2 10.2 59 4.3 S 22 28 12 15 1018.7 1018.7 0.0
24/02:00am 18.4 13.1 9.7 57 4.6 SSE 28 32 15 17 1018.8 1018.8 0.0
24/01:30am 18.2 13.7 10.1 59 4.3 S 24 30 13 16 1018.9 1018.9 0.0
24/01:00am 18.2 13.3 9.8 58 4.4 S 26 32 14 17 1018.7 1018.7 0.0
24/12:30am 18.6 13.6 12.1 66 3.6 S 30 37 16 20 1018.8 1018.8 0.0
24/12:00am 18.7 13.7 12.2 66 3.6 S 30 35 16 19 1018.7 1018.7 0.0
 
Date/Time
WST
Temp
°C
App
Temp
°C
Dew
Point
°C
Rel
Hum
%
Delta-T
°C
Wind Press
QNH
hPa
Press
MSL
hPa
Rain since
9am
mm
Dir  Spd
km/h
Gust
km/h
Spd
kts
Gust
kts
23/11:30pm 18.8 14.0 12.8 68 3.4 S 30 35 16 19 1018.8 1018.8 0.0
23/11:00pm 18.9 13.8 13.7 72 3.0 SSE 33 39 18 21 1018.7 1018.7 0.0
23/10:30pm 18.9 14.1 12.9 68 3.4 S 30 35 16 19 1018.5 1018.5 0.0
23/10:00pm 19.0 13.9 13.2 69 3.3 S 32 37 17 20 1018.1 1018.1 0.0
23/09:30pm 19.2 13.9 13.2 68 3.4 S 33 39 18 21 1018.0 1018.0 0.0
23/09:00pm 19.2 14.3 13.6 70 3.2 S 32 37 17 20 1017.8 1017.8 0.0
23/08:30pm 19.1 14.0 13.1 68 3.4 S 32 37 17 20 1017.5 1017.5 0.0
23/08:00pm 19.2 14.3 13.6 70 3.2 S 32 37 17 20 1017.3 1017.3 0.0
23/07:30pm 19.1 13.7 12.8 67 3.5 SSW 33 41 18 22 1017.2 1017.2 0.0
23/07:00pm 19.1 13.8 12.6 66 3.6 SSW 32 39 17 21 1016.6 1016.6 0.0
23/06:30pm 19.3 14.5 12.8 66 3.7 SSW 30 41 16 22 1016.1 1016.1 0.0
23/06:00pm 19.9 14.2 13.1 65 3.9 SSW 35 43 19 23 1015.6 1015.6 0.0
23/05:30pm 20.2 14.6 13.4 65 3.9 S 35 43 19 23 1015.0 1015.0 0.0
23/05:00pm 20.6 14.9 13.1 62 4.3 SSW 35 41 19 22 1014.6 1014.6 0.0
23/04:30pm 20.6 15.2 12.3 59 4.7 SSW 32 41 17 22 1014.1 1014.1 0.0
23/04:00pm 21.9 16.5 12.7 56 5.2 SSW 33 44 18 24 1013.8 1013.8 0.0
23/03:30pm 22.4 17.6 14.0 59 4.9 SSW 32 48 17 26 1013.3 1013.3 0.0
23/03:00pm 22.9 17.1 13.9 57 5.3 SSW 37 52 20 28 1012.9 1012.9 0.0
23/02:30pm 22.6 17.2 13.9 58 5.1 SSW 35 46 19 25 1012.7 1012.7 0.0
23/02:00pm 22.8 17.3 13.6 56 5.3 SSW 35 50 19 27 1012.6 1012.6 0.0
23/01:37pm 23.7 19.0 14.4 56 5.5 SSW 32 50 17 27 1012.3 1012.3 0.0
23/01:30pm 23.1 18.1 14.1 57 5.3 SSW 33 50 18 27 1012.3 1012.3 0.0
23/01:00pm 23.1 18.3 15.7 63 4.5 SW 35 48 19 26 1012.1 1012.1 0.0
23/12:30pm 23.6 19.6 16.1 62 4.6 SW 32 46 17 25 1012.2 1012.2 0.0
23/12:00pm 23.2 19.0 16.3 65 4.2 SW 33 48 18 26 1012.0 1012.0 0.0
23/11:44am 22.9 19.2 16.9 69 3.7 SW 32 50 17 27 1012.0 1012.0 0.0
23/11:30am 22.2 18.4 17.1 73 3.1 SW 33 48 18 26 1011.9 1011.9 0.0
23/11:00am 20.6 17.0 17.6 83 1.8 SW 33 46 18 25 1011.7 1011.7 0.0
23/10:30am 22.8 18.9 17.9 74 3.1 SSW 35 48 19 26 1011.3 1011.3 0.0
23/10:12am 20.2 17.2 17.8 86 1.5 SW 30 48 16 26 1011.2 1011.2 0.0
23/10:00am 20.2 17.1 18.5 90 1.1 SW 32 44 17 24 1011.1 1011.1 0.0
23/09:30am 21.7 20.5 19.3 86 1.5 SW 24 35 13 19 1010.5 1010.5 0.0
23/09:00am 22.3 21.3 18.9 81 2.1 SW 22 32 12 17 1010.0 1010.0 0.0
23/08:30am 21.6 21.2 18.8 84 1.8 SW 19 26 10 14 1009.6 1009.6 0.0
23/08:00am 21.7 21.4 19.1 85 1.6 SSW 19 26 10 14 1009.1 1009.1 0.0
23/07:30am 21.4 21.3 19.5 89 1.2 SW 19 24 10 13 1008.8 1008.8 0.0
23/07:00am 20.5 20.4 19.5 94 0.6 SSW 19 28 10 15 1008.4 1008.4 0.0
23/06:30am 20.5 19.7 19.3 93 0.8 SSW 22 32 12 17 1007.9 1007.9 0.0
23/06:00am 20.7 19.2 19.5 93 0.8 SSW 26 35 14 19 1007.4 1007.4 0.0
23/05:30am 21.0 20.8 19.8 93 0.8 SSW 20 28 11 15 1006.9 1006.9 0.0
23/05:00am 21.0 21.0 19.7 92 0.8 SSW 19 24 10 13 1006.4 1006.4 0.0
23/04:30am 21.1 22.2 19.7 92 0.9 SW 13 20 7 11 1005.9 1005.9 0.0
23/04:00am 20.5 21.4 19.2 92 0.8 WSW 13 20 7 11 1005.6 1005.6 0.0
23/03:30am 20.5 21.7 19.0 91 0.9 WSW 11 20 6 11 1005.2 1005.2 0.0
23/03:00am 20.6 23.1 19.1 91 0.9 WSW 4 13 2 7 1005.1 1005.1 0.0
23/02:30am 20.7 24.0 19.2 91 0.9 CALM 0 0 0 0 1004.7 1004.7 0.0
23/02:00am 20.7 22.9 19.2 91 0.9 W 6 9 3 5 1004.6 1004.6 0.0
23/01:30am 20.7 22.7 19.2 91 0.9 NW 7 11 4 6 1004.5 1004.5 0.0
23/01:00am 20.5 21.7 19.0 91 0.9 NE 11 15 6 8 1004.0 1004.0 0.0
23/12:30am 20.6 20.7 19.1 91 0.9 NE 17 20 9 11 1004.1 1004.1 0.0
23/12:00am 20.4 21.1 18.9 91 0.9 NE 13 17 7 9 1004.7 1004.7 0.0
 
Date/Time
WST
Temp
°C
App
Temp
°C
Dew
Point
°C
Rel
Hum
%
Delta-T
°C
Wind Press
QNH
hPa
Press
MSL
hPa
Rain since
9am
mm
Dir  Spd
km/h
Gust
km/h
Spd
kts
Gust
kts
22/11:30pm 20.4 20.4 18.9 91 0.9 NE 17 22 9 12 1005.1 1005.1 0.0
22/11:00pm 20.6 20.4 19.3 92 0.8 NE 19 24 10 13 1005.3 1005.3 0.0
22/10:30pm 20.9 19.9 19.7 93 0.8 ENE 24 32 13 17 1005.6 1005.6 0.0
22/10:00pm 21.0 19.3 19.8 93 0.8 ENE 28 35 15 19 1005.7 1005.7 0.0
22/09:30pm 20.8 18.2 19.6 93 0.8 ENE 32 37 17 20 1006.0 1006.0 0.0
22/09:00pm 20.8 18.2 19.6 93 0.8 ENE 32 37 17 20 1006.0 1006.0 0.0
22/08:30pm 20.8 18.6 19.5 92 0.8 ENE 30 35 16 19 1006.3 1006.3 0.0
22/08:00pm 21.1 19.3 19.6 91 1.0 E 28 33 15 18 1006.4 1006.4 0.0
22/07:30pm 20.9 19.0 19.4 91 1.0 E 28 35 15 19 1006.4 1006.4 0.0
22/07:00pm 20.9 19.1 19.6 92 0.8 E 28 33 15 18 1006.2 1006.2 0.0
22/06:30pm 21.0 19.3 19.7 92 0.8 E 28 33 15 18 1006.2 1006.2 0.0
22/06:00pm 21.0 19.2 19.5 91 1.0 E 28 33 15 18 1005.9 1005.9 0.0
22/05:30pm 21.3 19.8 19.4 89 1.2 E 26 32 14 17 1005.8 1005.8 0.0
22/05:00pm 21.5 20.4 19.4 88 1.3 E 24 30 13 16 1005.5 1005.5 0.0
22/04:30pm 21.6 20.5 19.5 88 1.3 E 24 30 13 16 1005.2 1005.2 0.0
22/04:00pm 21.8 20.3 19.4 86 1.5 E 26 30 14 16 1005.0 1005.0 0.0
22/03:30pm 22.9 21.4 19.5 81 2.2 ESE 26 30 14 16 1005.1 1005.1 0.0
22/03:00pm 22.9 21.3 19.1 79 2.4 ESE 26 30 14 16 1005.6 1005.6 0.0
22/02:30pm 23.2 22.1 19.4 79 2.4 ESE 24 28 13 15 1005.8 1005.8 0.0
22/02:00pm 23.0 21.6 19.6 81 2.2 ESE 26 30 14 16 1005.9 1005.9 0.0
22/01:30pm 23.7 22.1 19.2 76 2.9 ESE 26 30 14 16 1006.1 1006.1 0.0
22/01:00pm 22.7 20.8 19.3 81 2.2 E 28 33 15 18 1006.2 1006.2 0.0
22/12:30pm 22.5 20.3 19.5 83 1.9 E 30 32 16 17 1006.5 1006.5 0.0
22/12:00pm 22.5 20.4 19.7 84 1.8 E 30 35 16 19 1006.5 1006.5 0.0
22/11:30am 22.3 19.7 19.5 84 1.8 E 32 35 17 19 1006.8 1006.8 0.0
22/11:00am 22.5 20.8 19.7 84 1.8 E 28 33 15 18 1006.9 1006.9 0.0
22/10:30am 23.4 22.2 20.0 81 2.2 E 26 30 14 16 1007.1 1007.1 0.0
22/10:00am 23.5 22.7 19.2 77 2.7 E 22 26 12 14 1007.3 1007.3 0.0
22/09:30am 23.9 22.7 19.2 75 3.0 E 24 26 13 14 1007.7 1007.7 0.0
22/09:00am 24.2 23.9 19.5 75 3.0 ESE 20 24 11 13 1007.6 1007.6 0.0
22/08:30am 23.7 23.2 19.2 76 2.9 E 20 24 11 13 1007.8 1007.8 0.0
22/08:00am 23.4 22.8 18.9 76 2.9 E 20 24 11 13 1007.9 1007.9 0.0
22/07:30am 23.0 22.6 19.0 78 2.5 E 19 22 10 12 1008.2 1008.2 0.0
22/07:00am 22.4 21.6 18.4 78 2.5 ENE 20 24 11 13 1008.3 1008.3 0.0
22/06:30am 22.2 20.9 18.2 78 2.5 ENE 22 28 12 15 1008.2 1008.2 0.0
22/06:00am 21.2 19.7 17.8 81 2.1 ENE 22 28 12 15 1008.0 1008.0 0.0
22/05:30am 20.4 20.3 17.8 85 1.6 NE 15 19 8 10 1008.1 1008.1 0.0
22/05:00am 19.9 19.7 17.5 86 1.5 NE 15 20 8 11 1008.1 1008.1 0.0
22/04:30am 19.7 19.7 17.1 85 1.6 NE 13 17 7 9 1008.0 1008.0 0.0
22/04:00am 19.9 19.3 17.5 86 1.5 NE 17 20 9 11 1008.0 1008.0 0.0
22/03:30am 20.2 19.6 17.6 85 1.6 NE 17 22 9 12 1007.9 1007.9 0.0
22/03:00am 20.7 19.1 18.3 86 1.5 ENE 24 32 13 17 1007.8 1007.8 0.0
22/02:30am 21.1 19.0 19.0 88 1.3 ENE 28 32 15 17 1007.9 1007.9 0.0
22/02:00am 21.1 19.2 18.5 85 1.6 ENE 26 30 14 16 1008.2 1008.2 0.0
22/01:30am 21.0 18.9 18.0 83 1.9 ENE 26 30 14 16 1008.4 1008.4 0.0
22/01:00am 21.1 19.0 18.9 87 1.4 E 28 32 15 17 1008.7 1008.7 0.0
22/12:30am 20.9 18.7 18.7 87 1.4 E 28 32 15 17 1009.0 1009.0 0.0
22/12:00am 20.9 19.1 18.7 87 1.4 E 26 28 14 15 1009.3 1009.3 0.0
 
Date/Time
WST
Temp
°C
App
Temp
°C
Dew
Point
°C
Rel
Hum
%
Delta-T
°C
Wind Press
QNH
hPa
Press
MSL
hPa
Rain since
9am
mm
Dir  Spd
km/h
Gust
km/h
Spd
kts
Gust
kts
21/11:30pm 21.0 19.1 18.6 86 1.5 E 26 28 14 15 1009.8 1009.8 0.0
21/11:00pm 21.2 19.3 18.6 85 1.6 E 26 30 14 16 1010.1 1010.1 0.0
21/10:30pm 21.1 19.2 18.5 85 1.6 E 26 30 14 16 1010.2 1010.2 0.0
21/10:00pm 21.1 18.7 18.3 84 1.7 E 28 33 15 18 1010.3 1010.3 0.0
21/09:30pm 21.2 18.9 18.4 84 1.7 E 28 33 15 18 1010.5 1010.5 0.0
21/09:00pm 21.0 17.7 18.0 83 1.9 E 32 35 17 19 1010.3 1010.3 0.0
21/08:30pm 21.1 17.9 18.1 83 1.9 E 32 35 17 19 1010.3 1010.3 0.0
21/08:00pm 21.1 17.8 17.9 82 2.0 E 32 35 17 19 1010.4 1010.4 0.0
21/07:30pm 21.1 17.8 17.9 82 2.0 E 32 37 17 20 1010.5 1010.5 0.0
21/07:00pm 21.1 17.8 17.9 82 2.0 E 32 39 17 21 1010.4 1010.4 0.0
21/06:30pm 20.9 16.7 17.1 79 2.3 E 35 39 19 21 1010.0 1010.0 0.0
21/06:00pm 21.3 17.2 17.3 78 2.5 ESE 35 41 19 22 1009.7 1009.7 0.0
21/05:30pm 21.4 17.3 17.4 78 2.5 E 35 41 19 22 1009.1 1009.1 0.0
21/05:00pm 21.7 17.6 17.3 76 2.7 E 35 41 19 22 1009.1 1009.1 0.0
21/04:30pm 21.9 17.9 16.8 73 3.1 ESE 33 39 18 21 1009.0 1009.0 0.0
21/04:00pm 22.3 18.0 17.0 72 3.3 ESE 35 41 19 22 1009.0 1009.0 0.0
21/03:30pm 22.4 18.0 16.7 70 3.5 ESE 35 41 19 22 1009.2 1009.2 0.0
21/03:00pm 22.5 18.2 16.8 70 3.5 ESE 35 43 19 23 1009.4 1009.4 0.0
21/02:30pm 22.7 18.3 16.7 69 3.7 ESE 35 39 19 21 1009.7 1009.7 0.0
21/02:00pm 22.8 18.3 16.4 67 3.9 ESE 35 43 19 23 1010.0 1010.0 0.0
21/01:30pm 23.1 18.8 16.9 68 3.8 ESE 35 39 19 21 1010.4 1010.4 0.0
21/01:00pm 22.8 18.9 16.4 67 3.9 ESE 32 37 17 20 1010.5 1010.5 0.0
21/12:30pm 23.1 19.1 16.6 67 4.0 ESE 33 39 18 21 1010.6 1010.6 0.0
21/12:00pm 22.4 18.1 16.0 67 3.9 E 33 39 18 21 1010.8 1010.8 0.0
21/11:30am 22.6 18.6 16.2 67 3.9 E 32 37 17 20 1011.2 1011.2 0.0
21/11:00am 22.7 18.6 16.0 66 4.0 E 32 35 17 19 1011.5 1011.5 0.0
21/10:30am 22.2 17.9 15.3 65 4.1 E 32 35 17 19 1011.8 1011.8 0.0
21/10:00am 22.3 18.1 15.6 66 4.0 E 32 35 17 19 1012.0 1012.0 0.0
21/09:30am 22.2 18.3 15.5 66 4.0 E 30 35 16 19 1012.3 1012.3 0.0
21/09:00am 21.8 18.2 15.2 66 3.9 E 28 32 15 17 1012.6 1012.6 0.0
21/08:30am 21.7 18.3 14.8 65 4.1 E 26 32 14 17 1012.8 1012.8 0.0
21/08:00am 21.5 18.2 14.9 66 3.9 E 26 35 14 19 1013.1 1013.1 0.0
21/07:30am 20.7 17.6 14.6 68 3.6 ENE 24 30 13 16 1013.4 1013.4 0.0
21/07:00am 20.5 17.8 14.6 69 3.4 ENE 22 28 12 15 1013.3 1013.3 0.0

Other Formats:

Comma delimited format used in spreadsheet applications
http://www.bom.gov.au/fwo/IDW60801/IDW60801.94644.axf

JavaScript Object Notation format (JSON) in row-major order
http://www.bom.gov.au/fwo/IDW60801/IDW60801.94644.json